Time;durP1;ratioP1;P1;durP2;ratioP2;P2;SDS_P1;SDS_P2;PMS_P1;PMS_P2;Temp;Humidity;BMP_temperature;BMP_pressure;BME280_temperature;BME280_humidity;BME280_pressure;Samples;Min_cycle;Max_cycle;Signal;HPM_P1;HPM_P2
2023/07/20 00:02:15;;;;;;;0.30;0.30;;;22.70;66.10;;;;;;5050788;28;20037;-76
2023/07/20 00:04:40;;;;;;;0.30;0.30;;;22.70;65.80;;;;;;5044228;28;20551;-76
2023/07/20 00:07:06;;;;;;;0.40;0.40;;;22.70;66.40;;;;;;5035051;28;20127;-77
2023/07/20 00:09:31;;;;;;;0.20;0.20;;;22.70;66.40;;;;;;5048131;28;20025;-76
2023/07/20 00:11:57;;;;;;;0.43;0.30;;;22.70;66.60;;;;;;5029679;28;20092;-77
2023/07/20 00:14:23;;;;;;;0.50;0.40;;;22.60;66.20;;;;;;5034679;28;20164;-77
2023/07/20 00:16:55;;;;;;;0.77;0.40;;;22.70;66.50;;;;;;5052412;28;20128;-76
2023/07/20 00:19:21;;;;;;;0.63;0.40;;;22.60;66.60;;;;;;5036679;28;20534;-76
2023/07/20 00:21:47;;;;;;;0.40;0.40;;;22.60;66.80;;;;;;5030769;28;20041;-77
2023/07/20 00:24:12;;;;;;;0.50;0.50;;;22.60;67.00;;;;;;5030008;28;20037;-77
2023/07/20 00:26:38;;;;;;;0.52;0.50;;;22.60;66.90;;;;;;5032607;28;20037;-77
2023/07/20 00:29:04;;;;;;;1.08;0.47;;;22.60;66.70;;;;;;5033128;28;20479;-77
2023/07/20 00:31:29;;;;;;;0.40;0.40;;;22.60;66.60;;;;;;5031524;28;20040;-77
2023/07/20 00:33:55;;;;;;;0.30;0.30;;;22.60;66.50;;;;;;5031601;28;20044;-77
2023/07/20 00:36:20;;;;;;;0.38;0.30;;;22.60;66.40;;;;;;5029813;28;20053;-77
2023/07/20 00:38:46;;;;;;;0.32;0.32;;;22.60;66.40;;;;;;5033014;28;20143;-76
2023/07/20 00:41:12;;;;;;;0.57;0.45;;;22.60;66.30;;;;;;5032633;28;20037;-77
2023/07/20 00:43:38;;;;;;;0.40;0.40;;;22.60;66.30;;;;;;5027449;28;20038;-76
2023/07/20 00:46:04;;;;;;;0.30;0.30;;;22.60;66.40;;;;;;5033584;28;20041;-77
2023/07/20 00:48:31;;;;;;;0.40;0.35;;;22.60;66.40;;;;;;5026216;28;20036;-77
2023/07/20 00:50:57;;;;;;;0.30;0.30;;;22.60;66.30;;;;;;5030972;28;20076;-76
2023/07/20 00:53:23;;;;;;;0.60;0.47;;;22.60;66.30;;;;;;5050615;28;20052;-77
2023/07/20 00:55:48;;;;;;;0.30;0.30;;;22.60;66.30;;;;;;5061663;28;20389;-77
2023/07/20 00:58:14;;;;;;;0.32;0.32;;;22.60;66.30;;;;;;5033026;28;20053;-77
2023/07/20 01:00:39;;;;;;;0.55;0.47;;;22.60;66.20;;;;;;5049514;28;20531;-77
2023/07/20 01:03:05;;;;;;;0.40;0.40;;;22.60;66.30;;;;;;5033060;28;20045;-77
2023/07/20 01:05:55;;;;;;;0.50;0.40;;;22.60;66.30;;;;;;5032183;28;20065;-77
2023/07/20 01:08:27;;;;;;;0.50;0.40;;;22.60;66.30;;;;;;5055554;28;20038;-77
2023/07/20 01:10:59;;;;;;;0.50;0.40;;;22.60;66.30;;;;;;5043731;28;20044;-77
2023/07/20 01:13:25;;;;;;;0.40;0.30;;;22.50;66.30;;;;;;5036225;28;20103;-77
2023/07/20 01:15:58;;;;;;;0.30;0.30;;;22.50;66.20;;;;;;5067265;28;20036;-77
2023/07/20 01:18:23;;;;;;;0.50;0.50;;;22.50;66.20;;;;;;5027489;28;20034;-77
2023/07/20 01:20:49;;;;;;;0.40;0.40;;;22.50;66.30;;;;;;5035916;28;20052;-77
2023/07/20 01:23:41;;;;;;;0.30;0.30;;;22.50;66.30;;;;;;5037601;28;20037;-77
2023/07/20 01:26:15;;;;;;;0.30;0.30;;;22.60;66.20;;;;;;5060936;28;20045;-76
2023/07/20 01:28:59;;;;;;;0.40;0.40;;;22.50;66.10;;;;;;5030847;28;20037;-77
2023/07/20 01:31:26;;;;;;;0.50;0.50;;;22.50;66.20;;;;;;5051472;28;20048;-77
2023/07/20 01:33:53;;;;;;;0.60;0.50;;;22.50;66.00;;;;;;5052517;28;20028;-77
2023/07/20 01:36:19;;;;;;;0.30;0.30;;;22.60;66.20;;;;;;5039627;28;20064;-76
2023/07/20 01:38:45;;;;;;;0.65;0.30;;;22.60;66.20;;;;;;5046070;28;20041;-76
2023/07/20 01:41:11;;;;;;;0.65;0.40;;;22.50;66.00;;;;;;5049820;28;20052;-77
2023/07/20 01:43:36;;;;;;;0.40;0.40;;;22.50;66.10;;;;;;5041641;28;20033;-77
2023/07/20 01:46:02;;;;;;;0.50;0.50;;;22.50;66.10;;;;;;5034015;28;20045;-77
2023/07/20 01:48:27;;;;;;;0.60;0.55;;;22.50;66.10;;;;;;5036010;28;20099;-77
2023/07/20 01:50:53;;;;;;;0.30;0.30;;;22.50;66.10;;;;;;5031779;28;20053;-77
2023/07/20 01:53:20;;;;;;;0.40;0.40;;;22.50;66.00;;;;;;5033730;28;20400;-77
2023/07/20 01:55:45;;;;;;;0.30;0.30;;;22.50;66.80;;;;;;5040435;28;20049;-77
2023/07/20 01:58:11;;;;;;;0.40;0.30;;;22.50;66.00;;;;;;5029644;28;20044;-76
2023/07/20 02:00:37;;;;;;;0.43;0.43;;;22.50;66.00;;;;;;5034818;28;20514;-76
2023/07/20 02:03:02;;;;;;;0.35;0.35;;;22.50;66.00;;;;;;5031036;28;20030;-76
2023/07/20 02:05:28;;;;;;;0.20;0.20;;;22.50;66.80;;;;;;5030879;28;20410;-76
2023/07/20 02:07:54;;;;;;;0.45;0.30;;;22.50;66.00;;;;;;5033515;28;20033;-76
2023/07/20 02:10:20;;;;;;;0.43;0.43;;;22.50;66.00;;;;;;5036379;28;20119;-76
2023/07/20 02:12:45;;;;;;;0.20;0.20;;;22.50;66.00;;;;;;5031530;28;20079;-77
2023/07/20 02:15:13;;;;;;;0.30;0.30;;;22.50;65.90;;;;;;5033488;28;20522;-76
2023/07/20 02:17:40;;;;;;;0.75;0.60;;;22.50;66.00;;;;;;5029400;28;20055;-76
2023/07/20 02:20:08;;;;;;;0.32;0.30;;;22.50;66.00;;;;;;5038181;28;20041;-77
2023/07/20 02:22:34;;;;;;;0.25;0.25;;;22.50;66.00;;;;;;5035216;28;20136;-76
2023/07/20 02:24:59;;;;;;;0.25;0.25;;;22.50;66.00;;;;;;5035962;28;20124;-76
2023/07/20 02:27:25;;;;;;;0.45;0.30;;;22.50;66.00;;;;;;5035070;28;20033;-77
2023/07/20 02:29:51;;;;;;;0.28;0.28;;;22.50;65.90;;;;;;5036443;28;20062;-77
2023/07/20 02:32:16;;;;;;;0.35;0.35;;;22.50;65.90;;;;;;5032593;28;20532;-77
2023/07/20 02:34:42;;;;;;;0.45;0.30;;;22.50;65.90;;;;;;5020092;28;20044;-77
2023/07/20 02:37:07;;;;;;;0.22;0.22;;;22.50;65.90;;;;;;5033145;28;20057;-77
2023/07/20 02:39:33;;;;;;;0.30;0.30;;;22.50;66.70;;;;;;5038334;28;20037;-76
2023/07/20 02:41:58;;;;;;;0.45;0.40;;;22.50;65.90;;;;;;5029551;28;20435;-77
2023/07/20 02:44:24;;;;;;;0.40;0.32;;;22.50;65.90;;;;;;5035310;28;20128;-76
2023/07/20 02:46:50;;;;;;;0.30;0.30;;;22.50;65.90;;;;;;5038347;28;20045;-76
2023/07/20 02:49:16;;;;;;;0.60;0.30;;;22.50;65.80;;;;;;5037792;28;20040;-76
2023/07/20 02:51:41;;;;;;;0.40;0.40;;;22.50;65.90;;;;;;5032556;28;20045;-77
2023/07/20 02:54:08;;;;;;;0.35;0.35;;;22.50;65.90;;;;;;5034034;28;20044;-76
2023/07/20 02:56:33;;;;;;;0.43;0.40;;;22.50;66.70;;;;;;5036345;28;20064;-76
2023/07/20 02:58:59;;;;;;;0.38;0.30;;;22.50;66.70;;;;;;5034897;28;20514;-76
2023/07/20 03:01:27;;;;;;;0.32;0.32;;;22.50;65.80;;;;;;5053890;28;20415;-76
2023/07/20 03:03:52;;;;;;;0.32;0.30;;;22.50;65.80;;;;;;5032938;28;20044;-76
2023/07/20 03:06:18;;;;;;;0.30;0.25;;;22.40;65.70;;;;;;5035682;28;20055;-76
2023/07/20 03:08:45;;;;;;;0.50;0.50;;;22.40;65.80;;;;;;5033448;28;20052;-76
2023/07/20 03:11:11;;;;;;;0.30;0.30;;;22.50;65.70;;;;;;5032795;28;20049;-76
2023/07/20 03:13:36;;;;;;;0.30;0.30;;;22.40;65.70;;;;;;5035820;28;20033;-76
2023/07/20 03:16:02;;;;;;;0.43;0.38;;;22.40;65.70;;;;;;5028820;28;20506;-77
2023/07/20 03:18:27;;;;;;;0.28;0.28;;;22.40;65.70;;;;;;5034332;28;20029;-76
2023/07/20 03:20:53;;;;;;;0.30;0.30;;;22.40;65.70;;;;;;5034450;28;20035;-76
2023/07/20 03:23:18;;;;;;;0.20;0.20;;;22.40;65.70;;;;;;5032511;28;20736;-76
2023/07/20 03:25:44;;;;;;;0.30;0.30;;;22.40;65.70;;;;;;5034898;28;20090;-76
2023/07/20 03:28:09;;;;;;;0.22;0.22;;;22.50;65.80;;;;;;5030679;28;20049;-76
2023/07/20 03:30:35;;;;;;;0.80;0.50;;;22.40;65.70;;;;;;5030257;28;20462;-77
2023/07/20 03:33:01;;;;;;;0.45;0.38;;;22.50;65.70;;;;;;5033303;28;20037;-76
2023/07/20 03:35:26;;;;;;;0.40;0.40;;;22.40;66.40;;;;;;5035173;28;20045;-76
2023/07/20 03:37:52;;;;;;;0.20;0.20;;;22.40;65.60;;;;;;5031616;28;20131;-76
2023/07/20 03:40:17;;;;;;;0.30;0.30;;;22.40;65.60;;;;;;5033518;28;20029;-76
2023/07/20 03:42:43;;;;;;;0.45;0.30;;;22.40;65.60;;;;;;5035129;28;20037;-76
2023/07/20 03:45:09;;;;;;;0.52;0.40;;;22.40;66.40;;;;;;5024833;28;20415;-76
2023/07/20 03:47:34;;;;;;;0.20;0.20;;;22.40;65.60;;;;;;5034179;28;20056;-76
2023/07/20 03:50:00;;;;;;;0.52;0.50;;;22.40;65.50;;;;;;5033627;28;20052;-76
2023/07/20 03:52:25;;;;;;;0.38;0.38;;;22.40;65.50;;;;;;5036095;28;20140;-76
2023/07/20 03:54:51;;;;;;;0.43;0.40;;;22.40;65.50;;;;;;5030910;28;20033;-76
2023/07/20 03:57:17;;;;;;;0.45;0.30;;;22.40;65.40;;;;;;5026398;28;20041;-76
2023/07/20 03:59:45;;;;;;;0.77;0.60;;;22.40;65.50;;;;;;5029518;28;20056;-76
2023/07/20 04:02:10;;;;;;;0.38;0.32;;;22.40;65.50;;;;;;5033393;28;20081;-77
2023/07/20 04:04:36;;;;;;;0.40;0.20;;;22.40;65.50;;;;;;5037715;28;20134;-77
2023/07/20 04:07:02;;;;;;;0.30;0.30;;;22.40;65.60;;;;;;5031178;28;20056;-77
2023/07/20 04:09:27;;;;;;;0.60;0.38;;;22.40;65.50;;;;;;5035687;28;20047;-77
2023/07/20 04:11:53;;;;;;;0.30;0.30;;;22.40;65.40;;;;;;5033944;28;20056;-77
2023/07/20 04:14:18;;;;;;;0.35;0.20;;;22.40;65.40;;;;;;5027065;28;20037;-77
2023/07/20 04:16:46;;;;;;;0.38;0.38;;;22.40;65.50;;;;;;5026247;28;20125;-77
2023/07/20 04:19:12;;;;;;;0.32;0.22;;;22.40;65.40;;;;;;5034862;28;20049;-77
2023/07/20 04:21:41;;;;;;;0.50;0.40;;;22.40;65.50;;;;;;5026766;28;20033;-76
2023/07/20 04:24:06;;;;;;;0.25;0.25;;;22.40;65.40;;;;;;5028500;28;20030;-77
2023/07/20 04:26:32;;;;;;;0.30;0.30;;;22.40;65.40;;;;;;5036471;28;20048;-76
2023/07/20 04:28:59;;;;;;;0.30;0.30;;;22.40;65.50;;;;;;5036574;28;20040;-76
2023/07/20 04:31:24;;;;;;;0.25;0.25;;;22.40;65.40;;;;;;5038647;28;20037;-76
2023/07/20 04:33:50;;;;;;;0.38;0.32;;;22.40;65.50;;;;;;5026035;28;20044;-76
2023/07/20 04:36:19;;;;;;;0.30;0.30;;;22.40;66.30;;;;;;5028998;28;20422;-76
2023/07/20 04:38:45;;;;;;;0.20;0.20;;;22.40;65.50;;;;;;5032948;28;20414;-77
2023/07/20 04:41:12;;;;;;;0.40;0.30;;;22.40;65.40;;;;;;5034711;28;20045;-77
2023/07/20 04:43:40;;;;;;;0.40;0.38;;;22.40;65.40;;;;;;5033863;28;20041;-77
2023/07/20 04:46:06;;;;;;;0.30;0.30;;;22.40;65.50;;;;;;5035549;28;21553;-77
2023/07/20 04:48:32;;;;;;;0.40;0.30;;;22.40;65.40;;;;;;5037803;28;20036;-77
2023/07/20 04:50:57;;;;;;;0.32;0.32;;;22.40;65.40;;;;;;5034159;28;20055;-77
2023/07/20 04:53:23;;;;;;;0.70;0.40;;;22.40;65.40;;;;;;5039367;28;20135;-77
2023/07/20 04:55:50;;;;;;;0.30;0.30;;;22.30;65.40;;;;;;5033701;28;20522;-76
2023/07/20 04:58:17;;;;;;;0.30;0.30;;;22.30;65.40;;;;;;5031766;28;20041;-77
2023/07/20 05:00:42;;;;;;;0.40;0.40;;;22.40;65.40;;;;;;5035061;28;20033;-76
2023/07/20 05:03:08;;;;;;;0.38;0.38;;;22.30;65.40;;;;;;5035278;28;20094;-76
2023/07/20 05:05:33;;;;;;;0.50;0.50;;;22.30;65.40;;;;;;5035074;28;20037;-76
2023/07/20 05:07:59;;;;;;;0.40;0.40;;;22.30;65.50;;;;;;5035546;28;20048;-76
2023/07/20 05:10:25;;;;;;;0.40;0.40;;;22.40;65.50;;;;;;5036572;28;20045;-76
2023/07/20 05:12:50;;;;;;;0.30;0.30;;;22.40;65.60;;;;;;5037399;28;20523;-76
2023/07/20 05:15:16;;;;;;;0.30;0.30;;;22.40;65.40;;;;;;5031626;28;20455;-76
2023/07/20 05:17:41;;;;;;;0.30;0.30;;;22.40;65.40;;;;;;5033107;28;20484;-76
2023/07/20 05:20:09;;;;;;;0.30;0.30;;;22.40;65.30;;;;;;5033237;28;20040;-76
2023/07/20 05:22:36;;;;;;;0.20;0.20;;;22.40;65.40;;;;;;5034069;28;20041;-76
2023/07/20 05:25:01;;;;;;;0.55;0.40;;;22.40;65.30;;;;;;5040475;28;20128;-76
2023/07/20 05:27:27;;;;;;;0.30;0.30;;;22.40;65.30;;;;;;5032981;28;20523;-76
2023/07/20 05:29:52;;;;;;;0.30;0.30;;;22.40;65.40;;;;;;5029623;28;20053;-76
2023/07/20 05:32:18;;;;;;;0.30;0.30;;;22.40;65.30;;;;;;5037841;28;20045;-76
2023/07/20 05:34:43;;;;;;;0.40;0.40;;;22.30;65.30;;;;;;5035053;28;20037;-76
2023/07/20 05:37:09;;;;;;;0.30;0.30;;;22.40;65.40;;;;;;5036562;28;20073;-76
2023/07/20 05:39:34;;;;;;;0.38;0.30;;;22.30;65.30;;;;;;5038934;28;20053;-76
2023/07/20 05:42:00;;;;;;;0.30;0.20;;;22.40;65.30;;;;;;5029849;28;20034;-76
2023/07/20 05:44:25;;;;;;;0.40;0.28;;;22.40;65.30;;;;;;5033756;28;20379;-76
2023/07/20 05:46:51;;;;;;;0.30;0.30;;;22.40;65.30;;;;;;5034133;28;20107;-76
2023/07/20 05:49:17;;;;;;;0.20;0.20;;;22.40;65.30;;;;;;5030209;28;20038;-76
2023/07/20 05:51:42;;;;;;;0.20;0.20;;;22.40;65.40;;;;;;5035174;28;20044;-76
2023/07/20 05:54:08;;;;;;;0.40;0.40;;;22.40;65.50;;;;;;5027953;28;20051;-76
2023/07/20 05:56:33;;;;;;;0.30;0.30;;;22.30;66.20;;;;;;5033214;28;20045;-76
2023/07/20 05:58:59;;;;;;;0.68;0.40;;;22.30;65.50;;;;;;5033754;28;20050;-76
2023/07/20 06:01:27;;;;;;;0.30;0.22;;;22.30;65.40;;;;;;5034932;28;20037;-76
2023/07/20 06:03:53;;;;;;;0.30;0.30;;;22.30;66.30;;;;;;5028908;28;20072;-76
2023/07/20 06:06:18;;;;;;;2.35;0.38;;;22.30;65.40;;;;;;5031753;28;20042;-76
2023/07/20 06:08:44;;;;;;;0.30;0.30;;;22.30;65.40;;;;;;5033971;28;20045;-76
2023/07/20 06:11:10;;;;;;;0.30;0.30;;;22.30;65.40;;;;;;5035406;28;20049;-76
2023/07/20 06:13:35;;;;;;;0.40;0.38;;;22.30;65.50;;;;;;5034033;28;20126;-76
2023/07/20 06:16:01;;;;;;;0.22;0.22;;;22.30;65.40;;;;;;5035420;28;20531;-76
2023/07/20 06:18:27;;;;;;;0.20;0.20;;;22.30;65.40;;;;;;5035602;28;20509;-76
2023/07/20 06:20:52;;;;;;;0.40;0.32;;;22.30;65.40;;;;;;5031980;28;20081;-76
2023/07/20 06:23:21;;;;;;;0.35;0.35;;;22.30;65.40;;;;;;5033181;28;20053;-75
2023/07/20 06:25:47;;;;;;;0.20;0.20;;;22.30;65.40;;;;;;5035705;28;20053;-76
2023/07/20 06:28:13;;;;;;;0.40;0.40;;;22.40;66.20;;;;;;5032224;28;20120;-78
2023/07/20 06:30:38;;;;;;;0.28;0.22;;;22.30;65.40;;;;;;5026430;28;20622;-77
2023/07/20 06:33:04;;;;;;;0.32;0.32;;;22.30;65.40;;;;;;5032524;28;20033;-76
2023/07/20 06:35:29;;;;;;;0.57;0.57;;;22.40;65.70;;;;;;5034165;28;20041;-75
2023/07/20 06:37:55;;;;;;;0.70;0.70;;;22.50;65.20;;;;;;5034474;28;20087;-76
2023/07/20 06:40:21;;;;;;;1.88;0.73;;;22.30;65.40;;;;;;5027367;28;20117;-75
2023/07/20 06:42:46;;;;;;;1.08;0.82;;;22.20;65.40;;;;;;5030710;28;20507;-76
2023/07/20 06:45:12;;;;;;;2.13;0.90;;;22.20;65.30;;;;;;5030536;28;20511;-77
2023/07/20 06:47:39;;;;;;;1.10;0.88;;;22.10;65.50;;;;;;5029134;28;20423;-77
2023/07/20 06:50:06;;;;;;;1.35;1.25;;;22.10;65.70;;;;;;5044334;28;20038;-77
2023/07/20 06:52:32;;;;;;;1.40;1.30;;;22.10;65.90;;;;;;5029984;28;20064;-77
2023/07/20 06:54:57;;;;;;;2.88;1.27;;;21.90;66.40;;;;;;5034297;28;20065;-78
2023/07/20 06:57:23;;;;;;;2.17;1.40;;;21.90;66.80;;;;;;5048420;28;20053;-76
2023/07/20 06:59:48;;;;;;;1.33;1.20;;;21.90;67.30;;;;;;5034796;28;20080;-76
2023/07/20 07:02:14;;;;;;;2.50;1.13;;;21.80;67.20;;;;;;5037946;28;20045;-76
2023/07/20 07:04:40;;;;;;;1.30;1.20;;;21.80;67.10;;;;;;5033318;28;20052;-77
2023/07/20 07:07:05;;;;;;;0.82;0.82;;;21.80;68.20;;;;;;5031474;28;20576;-76
2023/07/20 07:09:31;;;;;;;3.72;1.20;;;21.70;67.60;;;;;;5034284;28;20126;-75
2023/07/20 07:11:57;;;;;;;1.20;1.10;;;21.70;67.60;;;;;;5028215;28;20049;-76
2023/07/20 07:14:22;;;;;;;2.35;1.00;;;21.70;67.60;;;;;;5036417;28;20499;-77
2023/07/20 07:16:48;;;;;;;2.83;1.20;;;21.70;67.60;;;;;;5057077;28;20043;-76
2023/07/20 07:19:13;;;;;;;1.00;0.90;;;21.60;68.00;;;;;;5056073;28;20683;-77
2023/07/20 07:21:39;;;;;;;0.70;0.70;;;21.50;68.40;;;;;;5034840;28;20041;-77
2023/07/20 07:24:06;;;;;;;1.15;0.75;;;21.40;68.80;;;;;;5044338;28;20045;-77
2023/07/20 07:26:32;;;;;;;1.48;1.13;;;21.50;69.00;;;;;;5051863;28;20510;-77
2023/07/20 07:28:58;;;;;;;2.72;1.70;;;21.40;69.00;;;;;;5046774;28;20056;-77
2023/07/20 07:31:25;;;;;;;3.13;1.30;;;21.40;69.50;;;;;;5038047;28;20033;-76
2023/07/20 07:33:50;;;;;;;2.58;1.60;;;21.40;69.30;;;;;;5056181;28;20033;-77
2023/07/20 07:36:16;;;;;;;1.23;1.13;;;21.40;69.40;;;;;;5064861;28;20517;-77
2023/07/20 07:38:42;;;;;;;1.42;1.33;;;21.50;69.40;;;;;;5067938;28;20319;-76
2023/07/20 07:41:08;;;;;;;2.88;1.17;;;21.30;70.20;;;;;;5035878;28;20045;-76
2023/07/20 07:43:34;;;;;;;1.33;1.15;;;21.40;71.00;;;;;;5037199;28;20418;-77
2023/07/20 07:46:00;;;;;;;1.77;1.38;;;21.30;70.20;;;;;;5042844;28;20087;-77
2023/07/20 07:48:26;;;;;;;1.92;1.13;;;21.30;70.60;;;;;;5014439;28;20550;-77
2023/07/20 07:50:53;;;;;;;1.38;1.20;;;21.30;70.50;;;;;;5033853;28;20072;-75
2023/07/20 07:53:20;;;;;;;1.45;1.33;;;21.30;70.40;;;;;;5043232;28;20045;-75
2023/07/20 07:55:47;;;;;;;1.05;0.98;;;21.30;70.70;;;;;;5042225;28;20045;-75
2023/07/20 07:58:13;;;;;;;1.52;1.10;;;21.30;70.90;;;;;;5029151;28;20030;-75
2023/07/20 08:00:39;;;;;;;1.67;1.33;;;21.20;70.70;;;;;;5024293;28;20083;-75
2023/07/20 08:03:06;;;;;;;1.92;1.55;;;21.20;70.60;;;;;;5026009;28;20064;-75
2023/07/20 08:05:31;;;;;;;1.65;1.15;;;21.20;70.40;;;;;;5026380;28;20037;-75
2023/07/20 08:07:57;;;;;;;1.58;1.35;;;21.20;70.00;;;;;;5031868;28;20071;-75
2023/07/20 08:10:23;;;;;;;1.35;1.25;;;21.20;70.10;;;;;;5026636;28;20073;-74
2023/07/20 08:12:48;;;;;;;1.17;1.08;;;21.10;70.50;;;;;;5030882;28;20057;-74
2023/07/20 08:15:14;;;;;;;1.60;1.40;;;21.10;70.60;;;;;;5025920;28;20415;-75
2023/07/20 08:17:41;;;;;;;1.85;1.50;;;21.10;70.70;;;;;;5038170;28;20492;-75
2023/07/20 08:20:09;;;;;;;1.20;1.10;;;21.10;70.30;;;;;;5041573;28;20554;-75
2023/07/20 08:22:35;;;;;;;1.63;1.20;;;21.10;70.30;;;;;;5049995;28;20072;-75
2023/07/20 08:25:00;;;;;;;1.17;1.00;;;21.10;70.70;;;;;;5045176;28;20559;-77
2023/07/20 08:27:26;;;;;;;1.90;1.13;;;21.20;70.70;;;;;;5033059;28;20080;-76
2023/07/20 08:29:51;;;;;;;1.58;1.48;;;21.10;71.10;;;;;;5035153;28;20041;-76
2023/07/20 08:32:17;;;;;;;1.23;1.13;;;21.20;70.70;;;;;;5031138;28;20068;-77
2023/07/20 08:34:43;;;;;;;2.17;0.80;;;21.20;71.60;;;;;;5035011;28;20042;-75
2023/07/20 08:37:10;;;;;;;1.30;1.00;;;21.10;70.90;;;;;;4682233;28;10000262;-76
2023/07/20 08:39:35;;;;;;;1.35;1.00;;;21.20;70.50;;;;;;5027103;28;20053;-76
2023/07/20 08:42:04;;;;;;;1.33;1.23;;;21.40;69.90;;;;;;5028172;28;20053;-77
2023/07/20 08:44:29;;;;;;;1.27;1.20;;;21.40;69.60;;;;;;5033057;28;20044;-76
2023/07/20 08:46:55;;;;;;;1.60;1.10;;;21.30;69.00;;;;;;5033599;28;20045;-77
2023/07/20 08:49:20;;;;;;;2.20;1.02;;;21.40;68.70;;;;;;5027193;28;20075;-77
2023/07/20 08:51:46;;;;;;;2.63;0.90;;;21.50;68.30;;;;;;5041242;28;20368;-77
2023/07/20 08:54:12;;;;;;;1.15;1.05;;;21.60;68.80;;;;;;5026496;28;20053;-78
2023/07/20 08:56:38;;;;;;;2.53;1.30;;;21.50;67.60;;;;;;5023534;28;20542;-78
2023/07/20 08:59:04;;;;;;;2.05;1.25;;;21.50;67.50;;;;;;5024369;28;20049;-78
2023/07/20 09:01:30;;;;;;;1.25;1.10;;;21.50;67.60;;;;;;4996775;28;20069;-78
2023/07/20 09:03:55;;;;;;;0.88;0.82;;;21.60;67.50;;;;;;5025108;28;20065;-78
2023/07/20 09:06:21;;;;;;;2.80;1.52;;;21.40;67.30;;;;;;5025673;28;20196;-78
2023/07/20 09:08:46;;;;;;;2.17;1.00;;;21.50;67.40;;;;;;5024957;28;20082;-78
2023/07/20 09:11:13;;;;;;;0.85;0.82;;;21.40;67.60;;;;;;5030651;28;20045;-78
2023/07/20 09:13:39;;;;;;;1.25;1.02;;;21.50;68.40;;;;;;5031531;28;20064;-77
2023/07/20 09:16:04;;;;;;;2.63;1.02;;;21.50;67.20;;;;;;5028115;28;20053;-78
2023/07/20 09:18:31;;;;;;;1.25;0.90;;;21.50;67.60;;;;;;5029363;28;20037;-78
2023/07/20 09:21:03;;;;;;;2.10;1.00;;;21.50;67.60;;;;;;5030176;28;20709;-78
2023/07/20 09:23:32;;;;;;;0.90;0.80;;;21.50;66.70;;;;;;5042330;28;20041;-78
2023/07/20 09:25:58;;;;;;;1.17;0.98;;;21.60;66.70;;;;;;5027515;28;20037;-78
2023/07/20 09:28:24;;;;;;;1.40;1.08;;;21.70;65.90;;;;;;5013823;28;20668;-78
2023/07/20 09:30:49;;;;;;;1.48;0.90;;;21.70;65.80;;;;;;5048951;28;20582;-78
2023/07/20 09:33:19;;;;;;;1.25;1.05;;;21.70;65.30;;;;;;5045368;28;20060;-78
2023/07/20 09:35:45;;;;;;;1.17;0.82;;;21.70;66.00;;;;;;5032787;28;20096;-79
2023/07/20 09:38:10;;;;;;;1.60;0.90;;;21.70;64.90;;;;;;5032599;28;20045;-79
2023/07/20 09:40:39;;;;;;;0.90;0.80;;;21.60;64.80;;;;;;5031801;28;20041;-80
2023/07/20 09:43:08;;;;;;;1.88;1.20;;;21.60;64.50;;;;;;5040828;28;20150;-79
2023/07/20 09:45:34;;;;;;;1.15;0.80;;;21.70;63.60;;;;;;5062168;28;20568;-79
2023/07/20 09:48:06;;;;;;;1.50;0.80;;;21.70;63.50;;;;;;5048021;28;20037;-79
2023/07/20 09:50:52;;;;;;;0.98;0.75;;;21.70;63.60;;;;;;5050153;28;20052;-79
2023/07/20 09:53:18;;;;;;;1.25;0.80;;;21.80;63.40;;;;;;5030834;28;20034;-79
2023/07/20 09:55:44;;;;;;;0.75;0.70;;;21.80;63.00;;;;;;5052440;28;20078;-78
2023/07/20 09:58:10;;;;;;;0.93;0.73;;;21.80;63.30;;;;;;5029576;28;20049;-79
2023/07/20 10:00:37;;;;;;;1.13;0.80;;;21.90;63.20;;;;;;5032488;28;20077;-78
2023/07/20 10:03:04;;;;;;;1.58;0.80;;;21.90;62.70;;;;;;5035120;28;20041;-78
2023/07/20 10:05:30;;;;;;;0.82;0.47;;;22.00;62.40;;;;;;5042777;28;21743;-78
2023/07/20 10:07:56;;;;;;;1.35;0.70;;;22.00;62.30;;;;;;5046925;28;20051;-79
2023/07/20 10:10:22;;;;;;;1.02;0.90;;;21.90;61.70;;;;;;5050386;28;20041;-78
2023/07/20 10:12:48;;;;;;;1.17;0.80;;;21.90;62.80;;;;;;5064348;28;20475;-79
2023/07/20 10:15:34;;;;;;;1.90;0.70;;;21.90;61.80;;;;;;5035920;28;20125;-78
2023/07/20 10:18:21;;;;;;;0.93;0.70;;;22.00;62.00;;;;;;5047031;28;20052;-78
2023/07/20 10:20:47;;;;;;;1.02;1.00;;;21.90;62.00;;;;;;5037847;28;20040;-79
2023/07/20 10:23:12;;;;;;;1.50;1.40;;;21.90;62.60;;;;;;5042963;28;20480;-77
2023/07/20 10:25:38;;;;;;;4.72;2.00;;;21.90;62.60;;;;;;5029399;28;20045;-78
2023/07/20 10:28:07;;;;;;;1.60;1.50;;;21.90;62.40;;;;;;5068503;28;20441;-78
2023/07/20 10:30:36;;;;;;;1.33;1.20;;;22.00;62.50;;;;;;5027594;28;20033;-79
2023/07/20 10:33:02;;;;;;;1.20;1.17;;;22.00;62.70;;;;;;5030844;28;20048;-79
2023/07/20 10:35:28;;;;;;;1.63;1.23;;;22.00;62.30;;;;;;5011163;28;20045;-79
2023/07/20 10:37:54;;;;;;;1.30;1.20;;;22.10;62.80;;;;;;5033003;28;20045;-79
2023/07/20 10:40:27;;;;;;;1.65;1.10;;;22.20;62.80;;;;;;5029501;28;20045;-79
2023/07/20 10:43:03;;;;;;;1.10;1.10;;;22.20;62.80;;;;;;5024793;28;20132;-79
2023/07/20 10:45:42;;;;;;;1.13;1.02;;;22.20;62.60;;;;;;5042556;28;20580;-80
2023/07/20 10:48:20;;;;;;;1.92;1.00;;;22.10;62.10;;;;;;5029207;28;20079;-80
2023/07/20 10:51:06;;;;;;;1.02;0.80;;;22.10;62.00;;;;;;5029909;28;20042;-77
2023/07/20 10:53:32;;;;;;;2.58;1.02;;;22.10;61.70;;;;;;5032556;28;20052;-80
2023/07/20 10:56:14;;;;;;;1.20;0.98;;;22.20;62.40;;;;;;5023541;28;20120;-79
2023/07/20 10:58:41;;;;;;;0.90;0.90;;;22.20;63.20;;;;;;5028100;28;20049;-80
2023/07/20 11:01:08;;;;;;;1.00;0.90;;;22.20;64.90;;;;;;5026946;28;20095;-80
2023/07/20 11:03:40;;;;;;;0.80;0.80;;;22.30;64.50;;;;;;5026961;28;20073;-79
2023/07/20 11:06:24;;;;;;;1.00;0.70;;;22.30;64.60;;;;;;5029886;28;20132;-79
2023/07/20 11:09:14;;;;;;;1.02;0.73;;;22.30;63.40;;;;;;5026340;28;20057;-80
2023/07/20 11:11:44;;;;;;;1.35;0.85;;;22.30;63.20;;;;;;5024817;28;20041;-80
2023/07/20 11:14:11;;;;;;;0.93;0.80;;;22.40;63.40;;;;;;5033076;28;20088;-79
2023/07/20 11:16:46;;;;;;;2.40;1.10;;;22.40;64.10;;;;;;5013705;28;20534;-80
2023/07/20 11:19:25;;;;;;;1.13;1.00;;;22.40;64.20;;;;;;5026831;28;20050;-80
2023/07/20 11:21:51;;;;;;;1.23;1.15;;;22.40;63.30;;;;;;5032819;28;20044;-80
2023/07/20 11:24:17;;;;;;;0.75;0.75;;;22.50;63.20;;;;;;5026078;28;20042;-80
2023/07/20 11:26:43;;;;;;;1.67;0.90;;;22.50;62.90;;;;;;5032497;28;20041;-81
2023/07/20 11:29:08;;;;;;;1.15;0.68;;;22.50;63.00;;;;;;5048417;28;20422;-81
2023/07/20 11:31:41;;;;;;;2.10;0.95;;;22.50;62.90;;;;;;5041185;28;20040;-81
2023/07/20 11:34:08;;;;;;;0.73;0.73;;;22.50;63.20;;;;;;5028307;28;20482;-80
2023/07/20 11:36:33;;;;;;;1.10;0.98;;;22.50;62.90;;;;;;5028209;28;20076;-81
2023/07/20 11:38:59;;;;;;;1.38;1.10;;;22.60;62.90;;;;;;5042745;28;20072;-81
2023/07/20 11:41:26;;;;;;;0.82;0.65;;;22.60;62.90;;;;;;5044763;28;20053;-82
2023/07/20 11:43:52;;;;;;;0.77;0.77;;;22.60;62.70;;;;;;5042288;28;20497;-82
2023/07/20 11:46:17;;;;;;;0.68;0.68;;;22.60;62.70;;;;;;5045795;28;20117;-81
2023/07/20 11:48:43;;;;;;;0.80;0.80;;;22.60;62.70;;;;;;5025470;28;20140;-82
2023/07/20 11:51:16;;;;;;;1.88;1.08;;;22.60;62.90;;;;;;5028733;28;20419;-81
2023/07/20 11:53:46;;;;;;;0.73;0.65;;;22.60;63.20;;;;;;5039490;28;20456;-81
2023/07/20 11:56:11;;;;;;;2.22;0.90;;;22.60;63.40;;;;;;5043894;28;20049;-80
2023/07/20 11:58:42;;;;;;;0.90;0.90;;;22.60;63.50;;;;;;5047579;28;20493;-81
2023/07/20 12:01:08;;;;;;;0.73;0.73;;;22.60;63.50;;;;;;5025170;28;20094;-81
2023/07/20 12:03:34;;;;;;;1.35;0.90;;;22.60;63.60;;;;;;5044600;28;20152;-81
2023/07/20 12:06:07;;;;;;;0.80;0.80;;;22.60;63.60;;;;;;5026480;28;20099;-81
2023/07/20 12:08:33;;;;;;;1.00;0.70;;;22.70;63.70;;;;;;5039324;28;20069;-81
2023/07/20 12:10:58;;;;;;;0.80;0.80;;;22.70;63.80;;;;;;5035978;28;20132;-81
2023/07/20 12:13:26;;;;;;;0.70;0.70;;;22.70;63.70;;;;;;5024011;28;20423;-80
2023/07/20 12:15:54;;;;;;;0.60;0.60;;;22.70;63.60;;;;;;5028686;28;20132;-81
2023/07/20 12:18:22;;;;;;;1.20;0.80;;;22.70;63.70;;;;;;5024743;28;20060;-80
2023/07/20 12:20:48;;;;;;;0.80;0.80;;;22.70;63.80;;;;;;5023424;28;20039;-82
2023/07/20 12:23:14;;;;;;;0.68;0.68;;;22.70;63.80;;;;;;5023024;28;20046;-81
2023/07/20 12:25:45;;;;;;;0.60;0.60;;;22.70;63.90;;;;;;5026525;28;20073;-81
2023/07/20 12:28:12;;;;;;;0.93;0.68;;;22.70;63.90;;;;;;5022519;28;20022;-81
2023/07/20 12:30:38;;;;;;;1.95;0.90;;;22.80;64.00;;;;;;5023787;28;20589;-81
2023/07/20 12:33:04;;;;;;;0.60;0.60;;;22.80;64.00;;;;;;5024795;28;20037;-79
2023/07/20 12:35:30;;;;;;;0.95;0.90;;;22.70;64.00;;;;;;5025084;28;20125;-80
2023/07/20 12:37:56;;;;;;;1.17;0.47;;;22.70;64.10;;;;;;5039599;28;20056;-81
2023/07/20 12:40:21;;;;;;;1.88;0.90;;;22.80;64.10;;;;;;5034558;28;20040;-80
2023/07/20 12:42:47;;;;;;;0.52;0.50;;;22.80;64.20;;;;;;5043224;28;20145;-81
2023/07/20 12:45:14;;;;;;;0.73;0.70;;;22.70;64.10;;;;;;5038108;28;20200;-81